createdAt,value
2022-12-23T00:01:01.502Z,73.42
2022-12-23T00:04:08.745Z,73.18
2022-12-23T00:07:15.423Z,72.94
2022-12-23T00:10:21.429Z,72.08
2022-12-23T00:13:43.000Z,72.48
2022-12-23T00:16:51.904Z,72.94
2022-12-23T00:19:58.587Z,72.28
2022-12-23T00:23:10.404Z,71.26
2022-12-23T00:26:20.470Z,72.00
2022-12-23T00:29:26.493Z,70.71
2022-12-23T00:32:35.830Z,71.09
2022-12-23T00:35:41.531Z,70.43
2022-12-23T00:39:01.023Z,71.06
2022-12-23T00:42:19.320Z,70.83
2022-12-23T00:45:26.097Z,69.79
2022-12-23T00:48:47.055Z,70.12
2022-12-23T00:51:53.621Z,70.06
2022-12-23T00:54:59.428Z,70.41
2022-12-23T00:58:06.206Z,69.69
2022-12-23T01:01:24.437Z,69.62
2022-12-23T01:04:45.954Z,68.99
2022-12-23T01:07:51.887Z,69.40
2022-12-23T01:10:58.799Z,69.20
2022-12-23T01:14:04.819Z,68.62
2022-12-23T01:17:11.993Z,68.99
2022-12-23T01:20:20.681Z,68.39
2022-12-23T01:23:27.270Z,68.72
2022-12-23T01:26:33.113Z,68.99
2022-12-23T01:29:39.843Z,69.44
2022-12-23T01:32:45.726Z,70.53
2022-12-23T01:35:54.923Z,69.67
2022-12-23T01:39:00.762Z,69.98
2022-12-23T01:42:21.910Z,69.42
2022-12-23T01:53:34.632Z,70.15
2022-12-23T02:00:47.550Z,69.96
2022-12-23T02:04:01.648Z,69.83
2022-12-23T02:07:23.422Z,70.17
2022-12-23T02:11:06.440Z,71.14
2022-12-23T02:14:48.698Z,71.11
2022-12-23T02:18:16.098Z,71.78
2022-12-23T02:22:08.223Z,72.44
2022-12-23T02:25:57.727Z,71.13
2022-12-23T02:29:46.653Z,71.36
2022-12-23T02:33:23.543Z,70.81
2022-12-23T02:36:48.248Z,71.28
2022-12-23T02:40:07.952Z,71.13
2022-12-23T02:43:29.943Z,71.23
2022-12-23T02:46:45.395Z,71.60
2022-12-23T02:50:05.648Z,72.00
2022-12-23T02:53:21.912Z,72.38
2022-12-23T02:56:35.350Z,72.25
2022-12-23T02:59:51.828Z,72.33
2022-12-23T03:02:59.475Z,72.43
2022-12-23T03:06:24.037Z,72.46
2022-12-23T03:09:49.924Z,72.80
2022-12-23T03:13:20.045Z,72.66
2022-12-23T03:16:34.913Z,72.45
2022-12-23T03:19:54.740Z,72.36
2022-12-23T03:23:18.859Z,72.31
2022-12-23T03:26:42.068Z,72.04
2022-12-23T03:30:04.044Z,71.85
2022-12-23T03:33:18.957Z,72.06
2022-12-23T03:36:34.763Z,71.08
2022-12-23T03:39:52.501Z,71.28
2022-12-23T03:43:07.720Z,71.29
2022-12-23T03:46:23.106Z,71.21
2022-12-23T03:49:38.897Z,70.53
2022-12-23T03:52:54.815Z,70.30
2022-12-23T03:56:13.367Z,70.74
2022-12-23T03:59:27.165Z,70.63
2022-12-23T04:02:55.324Z,69.33
2022-12-23T04:06:08.823Z,69.44
2022-12-23T04:09:22.232Z,69.36
2022-12-23T04:12:33.512Z,70.07
2022-12-23T04:15:44.892Z,69.93
2022-12-23T04:18:50.771Z,70.09
2022-12-23T04:21:59.968Z,70.66
2022-12-23T04:25:19.134Z,70.59
2022-12-23T04:28:28.286Z,70.69
2022-12-23T04:31:34.383Z,70.23
2022-12-23T04:34:40.919Z,70.59
2022-12-23T04:37:46.616Z,70.92
2022-12-23T04:40:53.282Z,70.11
2022-12-23T04:44:01.705Z,70.01
2022-12-23T04:47:11.243Z,70.36
2022-12-23T04:50:20.688Z,69.68
2022-12-23T04:53:27.258Z,69.47
2022-12-23T04:56:33.137Z,69.72
2022-12-23T04:59:42.417Z,68.96
2022-12-23T05:02:48.372Z,69.04
2022-12-23T05:05:55.061Z,69.73
2022-12-23T05:09:00.812Z,69.13
2022-12-23T05:12:10.824Z,68.56
2022-12-23T05:15:19.327Z,68.74
2022-12-23T05:18:27.772Z,68.52
2022-12-23T05:21:33.763Z,68.31
2022-12-23T05:24:40.332Z,67.15
2022-12-23T05:27:46.459Z,67.47
2022-12-23T05:31:02.053Z,67.62
2022-12-23T05:34:10.946Z,67.31
2022-12-23T05:37:17.589Z,67.61
2022-12-23T05:40:25.729Z,67.71
2022-12-23T05:43:38.491Z,68.30
2022-12-23T05:46:46.841Z,68.18
2022-12-23T05:49:53.365Z,67.98
2022-12-23T05:53:00.142Z,68.21
2022-12-23T05:56:09.021Z,68.47
2022-12-23T05:59:15.062Z,68.18
2022-12-23T06:02:24.966Z,68.48
2022-12-23T06:05:31.485Z,67.85
2022-12-23T06:08:38.307Z,67.97
2022-12-23T06:11:44.110Z,68.10
2022-12-23T06:14:53.179Z,67.98
2022-12-23T06:18:01.949Z,67.93
2022-12-23T06:21:11.501Z,68.44
2022-12-23T06:24:17.307Z,68.39
2022-12-23T06:27:24.103Z,68.45
2022-12-23T06:30:29.938Z,68.17
2022-12-23T06:33:39.237Z,68.11
2022-12-23T06:36:45.052Z,68.45
2022-12-23T06:39:51.674Z,68.12
2022-12-23T06:42:57.588Z,69.03
2022-12-23T06:46:04.274Z,68.15
2022-12-23T06:49:15.028Z,67.92
2022-12-23T06:52:23.163Z,67.85
2022-12-23T06:55:32.662Z,67.84
2022-12-23T06:58:40.629Z,68.23
2022-12-23T07:01:49.384Z,68.81
2022-12-23T07:04:58.631Z,68.23
2022-12-23T07:08:04.488Z,68.47
2022-12-23T07:11:11.411Z,68.25
2022-12-23T07:14:17.729Z,67.69
2022-12-23T07:17:24.387Z,68.10
2022-12-23T07:20:32.789Z,68.13
2022-12-23T07:23:39.558Z,68.58
2022-12-23T07:26:45.367Z,68.51
2022-12-23T07:29:52.067Z,68.57
2022-12-23T07:32:57.849Z,68.67
2022-12-23T07:36:07.826Z,67.80
2022-12-23T07:39:14.429Z,67.73
2022-12-23T07:42:50.937Z,67.32
2022-12-23T07:45:46.873Z,67.16
2022-12-23T07:48:53.508Z,66.48
2022-12-23T07:52:01.841Z,66.76
2022-12-23T07:55:10.097Z,65.90
2022-12-23T07:58:15.884Z,66.46
2022-12-23T08:01:24.186Z,66.95
2022-12-23T08:04:30.607Z,67.05
2022-12-23T08:07:40.187Z,67.24
2022-12-23T08:10:48.566Z,67.12
2022-12-23T08:13:55.814Z,67.42
2022-12-23T08:17:02.009Z,67.09
2022-12-23T08:20:10.990Z,67.90
2022-12-23T08:23:24.559Z,67.32
2022-12-23T08:26:31.606Z,67.48
2022-12-23T08:29:37.474Z,66.55
2022-12-23T08:32:44.096Z,67.09
2022-12-23T08:35:50.557Z,67.60
2022-12-23T08:39:02.995Z,67.67
2022-12-23T08:42:08.998Z,67.71
2022-12-23T08:45:17.245Z,68.12
2022-12-23T08:48:23.161Z,68.04
2022-12-23T08:51:31.286Z,67.89
2022-12-23T08:54:39.703Z,67.67
2022-12-23T08:57:46.242Z,67.73
2022-12-23T09:00:52.255Z,67.58
2022-12-23T09:03:59.605Z,68.05
2022-12-23T09:07:06.210Z,68.28
2022-12-23T09:10:15.423Z,68.00
2022-12-23T09:13:30.840Z,68.39
2022-12-23T09:16:42.250Z,68.36
2022-12-23T09:19:52.723Z,68.20
2022-12-23T09:22:59.867Z,68.52
2022-12-23T09:26:09.950Z,68.35
2022-12-23T09:29:16.666Z,68.10
2022-12-23T09:32:22.415Z,67.99
2022-12-23T09:35:29.157Z,67.74
2022-12-23T09:38:36.325Z,68.27
2022-12-23T09:42:09.257Z,68.24
2022-12-23T09:45:44.310Z,68.53
2022-12-23T09:49:05.662Z,67.80
2022-12-23T09:52:26.883Z,67.18
2022-12-23T09:55:49.175Z,67.14
2022-12-23T09:59:15.412Z,66.22
2022-12-23T10:02:48.299Z,66.04
2022-12-23T10:06:11.525Z,65.53
2022-12-23T10:09:21.780Z,65.21
2022-12-23T10:12:41.358Z,64.94
2022-12-23T10:15:55.463Z,62.82
2022-12-23T10:19:10.476Z,62.43
2022-12-23T10:22:27.453Z,61.56
2022-12-23T10:25:53.649Z,61.83
2022-12-23T10:29:19.222Z,61.38
2022-12-23T10:32:52.372Z,62.02
2022-12-23T10:36:15.753Z,62.52
2022-12-23T10:39:41.836Z,62.98
2022-12-23T10:43:06.340Z,63.85
2022-12-23T10:46:29.458Z,64.14
2022-12-23T10:50:04.711Z,64.41
2022-12-23T10:53:27.415Z,64.97
2022-12-23T10:56:35.772Z,65.58
2022-12-23T10:59:41.768Z,66.15
2022-12-23T11:03:15.394Z,65.87
2022-12-23T11:06:24.880Z,65.70
2022-12-23T11:09:42.764Z,66.05
2022-12-23T11:12:52.295Z,66.25
2022-12-23T11:16:19.948Z,66.59
2022-12-23T11:19:25.904Z,66.81
2022-12-23T11:34:54.996Z,67.41
2022-12-23T11:38:24.633Z,67.94
2022-12-23T11:41:38.173Z,67.93
2022-12-23T11:44:51.698Z,67.72
2022-12-23T11:47:59.285Z,68.05
2022-12-23T11:51:07.710Z,68.21
2022-12-23T11:54:23.561Z,68.01
2022-12-23T11:57:45.315Z,67.90
2022-12-23T12:00:59.460Z,68.21
2022-12-23T12:04:12.184Z,68.25
2022-12-23T12:07:22.127Z,68.58
2022-12-23T12:10:37.565Z,68.20
2022-12-23T12:13:48.189Z,68.25
2022-12-23T12:17:06.898Z,68.31
2022-12-23T12:20:29.294Z,68.87
2022-12-23T12:23:47.154Z,68.96
2022-12-23T12:27:04.934Z,68.90
2022-12-23T12:30:21.386Z,68.52
2022-12-23T12:33:38.852Z,69.22
2022-12-23T12:36:58.315Z,69.16
2022-12-23T12:40:11.258Z,69.00
2022-12-23T12:43:32.686Z,68.86
2022-12-23T12:46:49.029Z,68.54
2022-12-23T12:50:05.147Z,68.69
2022-12-23T12:53:21.878Z,68.10
2022-12-23T12:56:38.016Z,68.75
2022-12-23T12:59:52.156Z,68.53
2022-12-23T13:03:41.120Z,68.59
2022-12-23T13:07:10.585Z,68.86
2022-12-23T13:10:41.346Z,68.53
2022-12-23T13:14:05.108Z,68.92
2022-12-23T13:17:26.661Z,69.20
2022-12-23T13:20:45.292Z,68.46
2022-12-23T13:24:04.377Z,68.58
2022-12-23T13:27:19.660Z,68.59
2022-12-23T13:30:35.099Z,68.83
2022-12-23T13:34:01.196Z,68.40
2022-12-23T13:37:27.755Z,68.42
2022-12-23T13:40:47.563Z,68.75
2022-12-23T13:44:02.299Z,69.22
2022-12-23T13:47:26.367Z,69.33
2022-12-23T13:50:47.810Z,69.35
2022-12-23T13:54:14.865Z,69.06
2022-12-23T13:57:48.270Z,69.18
2022-12-23T14:01:22.249Z,69.24
2022-12-23T14:04:39.670Z,69.38
2022-12-23T14:07:48.480Z,69.50
2022-12-23T14:11:00.393Z,69.09
2022-12-23T14:14:17.885Z,68.84
2022-12-23T14:17:40.211Z,69.26
2022-12-23T14:20:58.863Z,69.00
2022-12-23T14:24:48.506Z,68.55
2022-12-23T14:28:16.373Z,68.79
2022-12-23T14:31:46.410Z,68.65
2022-12-23T14:35:23.148Z,69.02
2022-12-23T14:38:33.923Z,68.73
2022-12-23T14:41:52.777Z,69.27
2022-12-23T14:45:36.845Z,69.33
2022-12-23T14:49:38.195Z,68.97
2022-12-23T14:53:01.741Z,69.04
2022-12-23T14:56:26.478Z,68.46
2022-12-23T14:59:51.542Z,68.57
2022-12-23T15:03:03.659Z,68.53
2022-12-23T15:06:21.147Z,68.43
2022-12-23T15:09:31.760Z,68.71
2022-12-23T15:12:43.170Z,69.06
2022-12-23T15:16:02.005Z,68.90
2022-12-23T15:19:24.049Z,69.01
2022-12-23T15:22:35.487Z,69.40
2022-12-23T15:25:48.871Z,69.62
2022-12-23T15:28:54.754Z,69.77
2022-12-23T15:32:05.785Z,69.87
2022-12-23T15:35:26.372Z,69.56
2022-12-23T15:38:40.278Z,69.81
2022-12-23T15:41:49.445Z,69.59
2022-12-23T15:44:57.251Z,69.81
2022-12-23T15:48:08.584Z,69.37
2022-12-23T15:51:49.515Z,69.44
2022-12-23T15:55:03.911Z,69.52
2022-12-23T15:58:11.273Z,69.81
2022-12-23T16:01:22.220Z,69.40
2022-12-23T16:04:33.130Z,69.40
2022-12-23T16:07:44.462Z,69.41
2022-12-23T16:11:06.444Z,69.36
2022-12-23T16:14:40.539Z,69.21
2022-12-23T16:17:47.136Z,69.40
2022-12-23T16:21:00.660Z,69.56
2022-12-23T16:24:12.527Z,69.65
2022-12-23T16:27:22.070Z,69.52
2022-12-23T16:30:35.774Z,69.41
2022-12-23T16:33:47.685Z,69.47
2022-12-23T16:36:56.789Z,69.35
2022-12-23T16:40:05.946Z,69.20
2022-12-23T16:43:13.334Z,68.97
2022-12-23T16:46:23.074Z,69.06
2022-12-23T16:49:34.739Z,69.20
2022-12-23T16:52:43.654Z,69.00
2022-12-23T16:55:55.350Z,68.94
2022-12-23T16:59:04.857Z,69.23
2022-12-23T17:02:28.271Z,69.34
2022-12-23T17:05:34.228Z,69.79
2022-12-23T17:08:43.556Z,69.60
2022-12-23T17:11:53.884Z,69.67
2022-12-23T17:15:01.949Z,69.76
2022-12-23T17:18:15.939Z,69.76
2022-12-23T17:21:27.854Z,69.65
2022-12-23T17:24:36.143Z,69.82
2022-12-23T17:27:45.578Z,69.44
2022-12-23T17:30:58.071Z,69.39
2022-12-23T17:34:11.799Z,69.52
2022-12-23T17:37:19.761Z,69.37
2022-12-23T17:40:28.952Z,69.61
2022-12-23T17:43:34.655Z,69.06
2022-12-23T17:46:41.112Z,69.10
2022-12-23T17:49:48.944Z,69.11
2022-12-23T17:52:56.115Z,68.54
2022-12-23T17:56:04.317Z,68.43
2022-12-23T17:59:10.921Z,68.79
2022-12-23T18:02:32.948Z,68.92
2022-12-23T18:05:39.528Z,68.95
2022-12-23T18:08:45.435Z,69.02
2022-12-23T18:11:56.231Z,68.94
2022-12-23T18:15:02.347Z,68.70
2022-12-23T18:18:26.056Z,68.83
2022-12-23T18:21:35.689Z,68.54
2022-12-23T18:24:42.158Z,68.70
2022-12-23T18:27:52.529Z,68.43
2022-12-23T18:31:01.282Z,68.33
2022-12-23T18:34:07.105Z,67.94
2022-12-23T18:37:14.480Z,67.79
2022-12-23T18:40:32.432Z,68.24
2022-12-23T18:43:42.129Z,68.48
2022-12-23T18:46:50.994Z,68.69
2022-12-23T18:49:58.054Z,69.05
2022-12-23T18:53:04.994Z,68.72
2022-12-23T18:56:21.160Z,68.87
2022-12-23T18:59:31.791Z,68.81
2022-12-23T19:02:38.705Z,68.57
2022-12-23T19:05:44.329Z,68.44
2022-12-23T19:08:51.402Z,68.18
2022-12-23T19:11:58.125Z,68.11
2022-12-23T19:15:10.930Z,68.09
2022-12-23T19:18:18.793Z,68.30
2022-12-23T19:21:28.820Z,68.48
2022-12-23T19:24:36.532Z,68.61
2022-12-23T19:27:47.770Z,68.40
2022-12-23T19:30:56.871Z,68.48
2022-12-23T19:34:03.991Z,68.43
2022-12-23T19:37:14.401Z,67.77
2022-12-23T19:40:24.550Z,67.40
2022-12-23T19:43:30.445Z,67.02
2022-12-23T19:46:40.029Z,67.03
2022-12-23T19:49:51.924Z,67.07
2022-12-23T19:53:01.147Z,66.99
2022-12-23T19:56:11.146Z,67.20
2022-12-23T19:59:19.081Z,67.20
2022-12-23T20:02:28.450Z,67.28
2022-12-23T20:05:37.393Z,66.69
2022-12-23T20:08:44.067Z,66.40
2022-12-23T20:11:53.240Z,66.64
2022-12-23T20:14:59.681Z,66.15
2022-12-23T20:18:12.299Z,66.46
2022-12-23T20:21:20.168Z,66.40
2022-12-23T20:24:27.013Z,66.01
2022-12-23T20:27:33.910Z,66.30
2022-12-23T20:30:42.709Z,65.97
2022-12-23T20:33:53.895Z,66.38
2022-12-23T20:37:04.816Z,66.38
2022-12-23T20:40:17.776Z,66.13
2022-12-23T20:43:24.404Z,66.20
2022-12-23T20:46:30.402Z,65.77
2022-12-23T20:49:40.862Z,64.96
2022-12-23T20:52:47.225Z,64.92
2022-12-23T20:56:02.795Z,64.74
2022-12-23T20:59:08.485Z,63.79
2022-12-23T21:02:16.577Z,64.00
2022-12-23T21:05:25.063Z,63.75
2022-12-23T21:08:31.750Z,63.55
2022-12-23T21:11:41.536Z,63.87
2022-12-23T21:14:48.099Z,63.95
2022-12-23T21:17:53.971Z,64.13
2022-12-23T21:21:11.302Z,64.06
2022-12-23T21:24:20.952Z,64.20
2022-12-23T21:27:27.801Z,64.51
2022-12-23T21:30:37.806Z,64.36
2022-12-23T21:33:48.436Z,64.43
2022-12-23T21:36:56.694Z,64.40
2022-12-23T21:40:03.843Z,64.71
2022-12-23T21:43:09.499Z,63.98
2022-12-23T21:46:23.216Z,64.38
2022-12-23T21:49:28.812Z,63.84
2022-12-23T21:52:40.663Z,63.44
2022-12-23T21:55:46.708Z,63.93
2022-12-23T21:58:54.004Z,63.36
2022-12-23T22:02:01.477Z,63.11
2022-12-23T22:05:10.391Z,62.72
2022-12-23T22:08:22.846Z,63.04
2022-12-23T22:11:34.475Z,62.77
2022-12-23T22:14:40.662Z,63.41
2022-12-23T22:17:47.096Z,64.45
2022-12-23T22:20:53.185Z,64.12
2022-12-23T22:24:04.299Z,64.19
2022-12-23T22:27:10.397Z,64.74
2022-12-23T22:30:18.033Z,64.21
2022-12-23T22:33:25.217Z,63.68
2022-12-23T22:36:32.940Z,64.08
2022-12-23T22:39:44.138Z,63.79
2022-12-23T22:42:50.911Z,63.93
2022-12-23T22:45:59.881Z,63.60
2022-12-23T22:49:07.391Z,64.06
2022-12-23T22:52:13.279Z,63.03
2022-12-23T22:55:26.316Z,63.57
2022-12-23T22:58:34.633Z,63.54
2022-12-23T23:01:41.385Z,64.01
2022-12-23T23:04:50.569Z,63.92
2022-12-23T23:07:57.330Z,64.78
2022-12-23T23:11:08.809Z,64.63
2022-12-23T23:14:16.454Z,64.78
2022-12-23T23:17:22.766Z,65.71
2022-12-23T23:20:29.321Z,66.24
2022-12-23T23:23:35.156Z,65.86
2022-12-23T23:26:44.607Z,65.77
2022-12-23T23:29:50.401Z,66.13
2022-12-23T23:32:56.974Z,66.35
2022-12-23T23:36:03.208Z,66.92
2022-12-23T23:39:09.805Z,66.84
2022-12-23T23:42:18.286Z,67.46
2022-12-23T23:45:24.764Z,68.80
2022-12-23T23:48:33.299Z,69.78
2022-12-23T23:51:40.432Z,70.92
2022-12-23T23:54:46.475Z,71.25
2022-12-23T23:57:55.677Z,72.29
